createdAt,value
2022-09-26T00:02:01.818Z,45.50
2022-09-26T00:07:06.377Z,45.50
2022-09-26T00:12:09.507Z,45.50
2022-09-26T00:17:12.748Z,45.40
2022-09-26T00:22:17.289Z,45.40
2022-09-26T00:27:22.099Z,45.90
2022-09-26T00:32:25.299Z,45.40
2022-09-26T00:37:29.772Z,45.40
2022-09-26T00:42:33.322Z,45.80
2022-09-26T00:47:43.357Z,45.50
2022-09-26T00:52:53.852Z,46.10
2022-09-26T00:58:04.509Z,45.90
2022-09-26T01:03:07.974Z,45.80
2022-09-26T01:08:14.205Z,45.40
2022-09-26T01:13:18.276Z,45.90
2022-09-26T01:18:21.735Z,45.70
2022-09-26T01:23:56.475Z,45.80
2022-09-26T01:29:29.920Z,46.30
2022-09-26T01:34:44.878Z,46.40
2022-09-26T01:39:57.785Z,46.40
2022-09-26T01:45:08.958Z,46.60
2022-09-26T01:50:21.944Z,46.60
2022-09-26T01:55:29.605Z,46.70
2022-09-26T02:00:34.050Z,46.70
2022-09-26T02:05:44.590Z,46.40
2022-09-26T02:10:50.227Z,46.90
2022-09-26T02:15:58.786Z,46.70
2022-09-26T02:21:12.752Z,46.80
2022-09-26T02:26:16.278Z,47.00
2022-09-26T02:31:24.564Z,46.60
2022-09-26T02:36:34.610Z,46.90
2022-09-26T02:41:49.818Z,46.90
2022-09-26T02:47:37.764Z,47.20
2022-09-26T02:52:53.496Z,47.20
2022-09-26T02:58:07.283Z,47.10
2022-09-26T03:03:19.888Z,46.80
2022-09-26T03:08:27.525Z,47.60
2022-09-26T03:13:35.041Z,46.70
2022-09-26T03:18:42.133Z,46.50
2022-09-26T03:23:47.098Z,46.80
2022-09-26T03:28:50.242Z,46.80
2022-09-26T03:33:53.599Z,46.50
2022-09-26T03:38:58.049Z,46.50
2022-09-26T03:44:01.240Z,46.80
2022-09-26T03:49:04.324Z,46.70
2022-09-26T03:54:08.809Z,46.60
2022-09-26T03:59:11.937Z,46.70
2022-09-26T04:04:15.255Z,46.60
2022-09-26T04:09:20.101Z,46.60
2022-09-26T04:14:23.462Z,46.80
2022-09-26T04:19:28.425Z,46.80
2022-09-26T04:24:32.946Z,46.90
2022-09-26T04:29:36.109Z,47.00
2022-09-26T04:34:40.305Z,46.70
2022-09-26T04:39:45.214Z,46.60
2022-09-26T04:44:48.321Z,46.90
2022-09-26T04:49:51.639Z,46.40
2022-09-26T04:54:56.200Z,46.30
2022-09-26T04:59:59.296Z,46.60
2022-09-26T05:05:02.526Z,46.20
2022-09-26T05:10:10.969Z,46.30
2022-09-26T05:15:14.112Z,46.70
2022-09-26T05:20:20.429Z,46.60
2022-09-26T05:25:42.446Z,46.70
2022-09-26T05:30:45.757Z,47.10
2022-09-26T05:35:53.433Z,46.90
2022-09-26T05:40:58.165Z,47.20
2022-09-26T05:46:03.878Z,47.40
2022-09-26T05:51:10.972Z,47.20
2022-09-26T05:56:19.286Z,47.20
2022-09-26T06:01:22.802Z,47.40
2022-09-26T06:06:26.100Z,47.10
2022-09-26T06:11:30.994Z,47.10
2022-09-26T06:16:34.424Z,47.30
2022-09-26T06:21:39.961Z,46.90
2022-09-26T06:26:44.438Z,46.90
2022-09-26T06:31:47.542Z,47.50
2022-09-26T06:36:50.838Z,46.70
2022-09-26T06:41:56.035Z,46.80
2022-09-26T06:47:01.042Z,47.20
2022-09-26T06:52:04.422Z,47.50
2022-09-26T06:57:14.690Z,47.80
2022-09-26T07:02:18.302Z,47.80
2022-09-26T07:07:21.426Z,47.40
2022-09-26T07:12:26.054Z,47.40
2022-09-26T07:17:29.122Z,47.20
2022-09-26T07:22:32.393Z,47.30
2022-09-26T07:27:37.231Z,47.50
2022-09-26T07:32:44.265Z,47.30
2022-09-26T07:37:52.087Z,47.00
2022-09-26T07:43:18.427Z,46.90
2022-09-26T07:48:39.894Z,47.00
2022-09-26T07:53:43.056Z,47.70
2022-09-26T07:58:48.634Z,47.40
2022-09-26T08:03:57.375Z,47.30
2022-09-26T08:09:00.631Z,47.20
2022-09-26T08:14:05.142Z,46.00
2022-09-26T08:19:08.643Z,45.50
2022-09-26T08:24:12.364Z,45.50
2022-09-26T08:29:16.884Z,45.50
2022-09-26T08:34:25.062Z,45.50
2022-09-26T08:39:33.097Z,45.60
2022-09-26T08:44:55.956Z,45.70
2022-09-26T08:50:10.022Z,45.60
2022-09-26T08:55:17.107Z,45.10
2022-09-26T09:00:24.950Z,45.50
2022-09-26T09:05:31.427Z,45.10
2022-09-26T09:10:45.186Z,44.30
2022-09-26T09:16:04.948Z,42.50
2022-09-26T09:21:18.285Z,42.70
2022-09-26T09:31:56.318Z,42.40
2022-09-26T09:37:05.239Z,42.00
2022-09-26T09:42:14.161Z,42.80
2022-09-26T09:47:20.128Z,41.70
2022-09-26T09:52:43.562Z,42.00
2022-09-26T09:57:59.653Z,40.90
2022-09-26T10:03:16.764Z,42.20
2022-09-26T10:08:23.042Z,41.20
2022-09-26T10:13:32.640Z,41.30
2022-09-26T10:18:57.163Z,41.30
2022-09-26T10:24:04.841Z,40.10
2022-09-26T10:29:21.381Z,40.80
2022-09-26T10:34:28.833Z,40.80
2022-09-26T10:39:49.891Z,40.00
2022-09-26T10:44:58.019Z,40.30
2022-09-26T10:50:07.376Z,38.80
2022-09-26T10:55:16.237Z,39.70
2022-09-26T11:00:21.510Z,38.80
2022-09-26T11:05:43.657Z,39.50
2022-09-26T11:10:48.931Z,39.40
2022-09-26T11:16:01.508Z,39.90
2022-09-26T11:21:28.162Z,38.60
2022-09-26T11:26:45.124Z,38.30
2022-09-26T11:31:48.662Z,39.30
2022-09-26T11:37:09.103Z,39.40
2022-09-26T11:42:26.808Z,38.10
2022-09-26T11:48:16.272Z,38.30
2022-09-26T11:53:55.383Z,38.10
2022-09-26T11:59:06.385Z,38.60
2022-09-26T12:04:29.118Z,38.90
2022-09-26T12:09:55.526Z,37.90
2022-09-26T12:15:15.093Z,38.20
2022-09-26T12:20:33.695Z,37.30
2022-09-26T12:25:50.158Z,37.70
2022-09-26T12:31:05.282Z,37.80
2022-09-26T12:36:21.591Z,37.70
2022-09-26T12:41:54.918Z,37.80
2022-09-26T12:47:14.540Z,37.10
2022-09-26T12:52:27.811Z,38.10
2022-09-26T12:57:40.423Z,39.30
2022-09-26T13:03:16.477Z,38.60
2022-09-26T13:08:25.351Z,38.80
2022-09-26T13:13:54.402Z,39.00
2022-09-26T13:19:05.350Z,38.10
2022-09-26T13:24:14.226Z,37.80
2022-09-26T13:29:24.079Z,38.40
2022-09-26T13:34:32.599Z,38.10
2022-09-26T13:39:43.530Z,38.20
2022-09-26T13:45:00.458Z,38.10
2022-09-26T13:50:16.535Z,37.40
2022-09-26T13:55:21.804Z,37.60
2022-09-26T14:00:54.605Z,38.20
2022-09-26T14:06:32.712Z,37.70
2022-09-26T14:11:49.186Z,37.50
2022-09-26T14:16:54.834Z,37.20
2022-09-26T14:22:03.605Z,37.60
2022-09-26T14:27:42.753Z,36.80
2022-09-26T14:32:47.976Z,36.80
2022-09-26T14:37:53.000Z,36.90
2022-09-26T14:43:34.691Z,36.90
2022-09-26T14:48:40.688Z,36.20
2022-09-26T14:53:55.894Z,36.40
2022-09-26T14:59:28.790Z,36.20
2022-09-26T15:04:35.130Z,36.20
2022-09-26T15:09:42.003Z,36.30
2022-09-26T15:14:51.333Z,36.20
2022-09-26T15:20:00.994Z,35.20
2022-09-26T15:25:10.323Z,35.00
2022-09-26T15:30:18.638Z,35.00
2022-09-26T15:35:23.386Z,35.00
2022-09-26T15:40:29.083Z,35.70
2022-09-26T15:45:34.301Z,35.40
2022-09-26T15:50:43.275Z,36.20
2022-09-26T15:55:51.744Z,35.40
2022-09-26T16:00:56.064Z,34.30
2022-09-26T16:06:00.975Z,35.80
2022-09-26T16:11:07.534Z,35.20
2022-09-26T16:16:18.744Z,34.60
2022-09-26T16:21:27.154Z,34.80
2022-09-26T16:26:33.124Z,34.30
2022-09-26T16:31:44.337Z,35.00
2022-09-26T16:36:50.057Z,34.90
2022-09-26T16:42:02.786Z,35.70
2022-09-26T16:47:29.945Z,35.70
2022-09-26T16:52:35.612Z,35.60
2022-09-26T16:57:41.127Z,35.10
2022-09-26T17:02:44.778Z,35.50
2022-09-26T17:07:50.788Z,35.40
2022-09-26T17:12:54.610Z,35.40
2022-09-26T17:17:59.475Z,35.70
2022-09-26T17:23:22.003Z,36.00
2022-09-26T17:28:32.572Z,35.30
2022-09-26T17:33:40.673Z,35.50
2022-09-26T17:38:45.357Z,35.60
2022-09-26T17:43:48.568Z,35.20
2022-09-26T17:48:51.763Z,35.00
2022-09-26T17:53:57.362Z,35.20
2022-09-26T17:59:01.171Z,34.90
2022-09-26T18:04:12.749Z,35.40
2022-09-26T18:09:21.369Z,35.40
2022-09-26T18:14:25.021Z,35.50
2022-09-26T18:19:28.875Z,36.40
2022-09-26T18:24:34.156Z,36.50
2022-09-26T18:29:41.550Z,36.60
2022-09-26T18:34:45.011Z,36.30
2022-09-26T18:39:54.650Z,36.50
2022-09-26T18:45:03.733Z,36.30
2022-09-26T18:50:08.226Z,36.30
2022-09-26T18:55:37.473Z,36.40
2022-09-26T19:00:41.947Z,36.40
2022-09-26T19:05:45.325Z,36.50
2022-09-26T19:10:50.038Z,36.70
2022-09-26T19:15:53.749Z,37.00
2022-09-26T19:20:57.056Z,37.00
2022-09-26T19:26:02.156Z,37.30
2022-09-26T19:31:05.899Z,37.60
2022-09-26T19:36:10.513Z,37.60
2022-09-26T19:41:15.251Z,37.60
2022-09-26T19:46:25.425Z,38.50
2022-09-26T19:51:29.128Z,37.90
2022-09-26T19:56:34.905Z,37.80
2022-09-26T20:01:39.198Z,38.00
2022-09-26T20:06:42.516Z,38.00
2022-09-26T20:11:47.452Z,38.20
2022-09-26T20:16:51.641Z,38.40
2022-09-26T20:21:55.088Z,38.40
2022-09-26T20:27:01.249Z,38.40
2022-09-26T20:32:09.345Z,38.40
2022-09-26T20:37:15.814Z,38.20
2022-09-26T20:42:20.571Z,38.40
2022-09-26T20:47:24.037Z,38.50
2022-09-26T20:52:29.853Z,38.50
2022-09-26T20:57:34.412Z,38.60
2022-09-26T21:02:40.168Z,38.80
2022-09-26T21:07:43.552Z,38.80
2022-09-26T21:12:48.201Z,38.80
2022-09-26T21:17:52.438Z,38.70
2022-09-26T21:22:56.621Z,38.80
2022-09-26T21:28:03.405Z,38.80
2022-09-26T21:33:06.600Z,38.80
2022-09-26T21:38:10.122Z,38.80
2022-09-26T21:43:16.486Z,38.70
2022-09-26T21:48:19.668Z,38.80
2022-09-26T21:53:27.081Z,38.80
2022-09-26T21:58:37.249Z,38.90
2022-09-26T22:03:40.439Z,39.10
2022-09-26T22:08:43.823Z,38.90
2022-09-26T22:13:48.399Z,38.90
2022-09-26T22:18:51.638Z,38.80
2022-09-26T22:23:55.008Z,38.80
2022-09-26T22:28:59.594Z,38.90
2022-09-26T22:34:02.847Z,38.90
2022-09-26T22:39:06.150Z,38.90
2022-09-26T22:44:10.704Z,38.80
2022-09-26T22:49:13.954Z,38.80
2022-09-26T22:54:17.240Z,38.80
2022-09-26T22:59:22.132Z,38.80
2022-09-26T23:04:45.418Z,39.60
2022-09-26T23:09:48.589Z,38.90
2022-09-26T23:14:53.272Z,38.80
2022-09-26T23:19:56.491Z,38.60
2022-09-26T23:24:59.761Z,38.50
2022-09-26T23:30:04.606Z,38.40
2022-09-26T23:35:08.464Z,38.40
2022-09-26T23:40:12.104Z,38.50
2022-09-26T23:45:17.030Z,38.60
2022-09-26T23:50:20.323Z,38.80
2022-09-26T23:55:23.575Z,38.70
